Gilman, Minnesota
Current Conditions -  °F | °C
As of 6:53 PM on Tuesday 25 Nov 2014 (Local Time) from KSTC Reporting Station
Overcast Overcast  
Wind Chill: 15°   Ceiling: 4900
Heat Index: 21°   Visibility: 10mi
Dew Point: 11°   Wind: 5mph
Humidity: 65%   Direction: 130°SE
Pressure: 29.98"   Gusts: NA
Location:  45.74°N, 93.95°W
Report Text: KSTC 260053Z 13004KT 10SM OVC049 M06/M12 A2998 RMK AO2 SLP183 T10611117
Loading
Personal Weather Stations






























Interactive Weather Map New forecast layout! Learn more

10-Day Weather Forecast

Advertisements
Track Severe Weather on mobile